Glenwood, AR

5:55 PM CDT on September 20, 2014 (GMT -0500)
Paradise South Golf Course | Change Station
CLOSE
Current Station
Personal Weather Station
Location: Norman, AR
Elevation: 700 ft
Nearby Weather Stations

Elev 700 ft 34.43 °N, 93.71 °W | Updated 16 minutes ago

Partly Cloudy
Partly Cloudy
88.9 °F
Feels Like 89 °F
N
0.0
Wind Variable Wind from North
Gusts 2.2 mph

Today
High -- | Low -- °F
--% Chance of Precip.
Yesterday
High -- | Low -- °F
Precip. -- in
7:00 AM 7:13 PM
Waning Crescent, 10% visible
Pressure 29.95 in
Visibility 10.0 miles
Clouds Clear
Heat Index 89 °F
Dew Point 62 °F
Humidity 40%
Rainfall 0.00 in
Snow Depth Not available.
UV 1 out of 12
Pollen 10.10 out of 12
Air Quality Not available.
Flu Activity Not available.
METAR KMWT 202253Z AUTO 00000KT 10SM CLR 28/21 A2998 RMK AO2 SLP140 T02830211 $

More Conditions Fewer Conditions

Pressure 29.95 in
Visibility 10.0 miles
Clouds Clear
Heat Index 89 °F
Dew Point 62 °F
Humidity 40%
Rainfall 0.00 in
Snow Depth Not available.
UV 1 out of 12
Pollen 10.10 out of 12
Air Quality Not available.
Flu Activity Not available.
METAR KMWT 202253Z AUTO 00000KT 10SM CLR 28/21 A2998 RMK AO2 SLP140 T02830211 $

More Conditions Fewer Conditions

10-Day Weather Forecast

Almanac

Astronomy

Sep. 20, 2014 Rise Set
Actual Time 7:00 AM CDT 7:13 PM CDT
Civil Twilight 6:35 AM CDT 7:38 PM CDT
Nautical Twilight 6:06 AM CDT 8:08 PM CDT
Astronomical Twilight 5:36 AM CDT 8:37 PM CDT
Moon 3:47 AM CDT 5:11 PM CDT
Length of Visible Light 13h 03m
Length of Day
12h 12m
Tomorrow will be 2m 8s shorter.
Waning Crescent, 10% of the Moon is Illuminated
Today
Waning Crescent
Sep 24
New
Oct 1
First Quarter
Oct 8
Full
Oct 15
Last Quarter

Today's Extremes

State Highs State Lows

Community

WunderPhotos

Upload Photos

1,754,970 photos uploaded!

WunderBlogs® & News

Nearby

Snow Depth

Station Depth Elevation
No new snow has been reported.

Earthquake Activity

City Distance Mag. Time & Date
No recent earthquake activity has been reported nearby.
Minimum magnitude displayed is 2.5.

Coastal Water Temperatures

Place Temperature
No Stations Reporting

Nearby Weather Stations